Time;durP1;ratioP1;P1;durP2;ratioP2;P2;SDS_P1;SDS_P2;PMS_P1;PMS_P2;Temp;Humidity;BMP_temperature;BMP_pressure;BME280_temperature;BME280_humidity;BME280_pressure;Samples;Min_cycle;Max_cycle;Signal;HPM_P1;HPM_P2
2021/05/18 00:00:15;;;;;;;6.03;5.65;;;;;;;13.31;77.88;98284.67;1755184;80;21809;-52
2021/05/18 00:02:41;;;;;;;10.63;6.05;;;;;;;13.30;77.93;98281.60;1753711;80;21091;-53
2021/05/18 00:05:10;;;;;;;10.53;7.58;;;;;;;13.30;77.99;98286.14;1755111;80;21083;-52
2021/05/18 00:07:38;;;;;;;5.85;5.45;;;;;;;13.30;77.99;98289.71;1756103;80;21055;-53
2021/05/18 00:12:50;;;;;;;3.65;3.40;;;;;;;13.24;77.94;98295.14;1758632;80;20918;-52
2021/05/18 00:15:18;;;;;;;3.58;3.05;;;;;;;13.23;78.01;98289.85;1754423;80;20976;-52
2021/05/18 00:17:44;;;;;;;3.15;3.05;;;;;;;13.21;78.07;98288.63;1695001;82;20986;-53
2021/05/18 00:20:13;;;;;;;3.80;3.47;;;;;;;13.22;78.13;98291.70;1739400;80;21059;-53
2021/05/18 00:22:39;;;;;;;3.12;2.92;;;;;;;13.23;78.09;98287.15;1761444;80;20920;-52
2021/05/18 00:25:07;;;;;;;3.10;2.90;;;;;;;13.23;78.09;98281.75;1760092;80;22586;-53
2021/05/18 00:27:35;;;;;;;4.70;4.40;;;;;;;13.24;78.10;98276.71;1761703;80;21431;-53
2021/05/18 00:30:04;;;;;;;5.42;5.08;;;;;;;13.24;78.04;98276.71;1764800;80;21513;-53
2021/05/18 00:32:30;;;;;;;6.15;5.40;;;;;;;13.23;77.80;98272.29;1761367;80;21961;-52
2021/05/18 00:34:57;;;;;;;9.85;4.78;;;;;;;13.19;77.60;98274.86;1761511;80;20960;-53
2021/05/18 00:37:24;;;;;;;6.10;5.58;;;;;;;13.16;77.55;98269.24;1765063;79;21240;-53
2021/05/18 00:39:50;;;;;;;4.95;4.67;;;;;;;13.13;77.59;98272.64;1762434;80;21334;-51
2021/05/18 00:42:19;;;;;;;4.53;4.22;;;;;;;13.09;77.60;98273.89;1761239;80;20962;-53
2021/05/18 00:44:46;;;;;;;5.15;4.65;;;;;;;13.07;77.61;98273.16;1763401;80;21537;-52
2021/05/18 00:47:12;;;;;;;5.25;4.45;;;;;;;13.06;77.68;98276.83;1760777;80;21473;-52
2021/05/18 00:49:39;;;;;;;4.70;4.40;;;;;;;13.06;77.70;98276.83;1762749;80;20910;-51
2021/05/18 00:52:06;;;;;;;7.55;6.15;;;;;;;13.06;77.85;98276.83;1763151;80;21110;-51
2021/05/18 00:54:43;;;;;;;5.50;5.00;;;;;;;13.05;77.87;98273.77;1675690;82;21179;-53
2021/05/18 00:59:53;;;;;;;4.15;3.95;;;;;;;12.99;77.62;98260.77;1761438;80;21652;-53
2021/05/18 01:02:19;;;;;;;3.92;3.72;;;;;;;12.95;77.58;98252.04;1761483;80;21150;-52
2021/05/18 01:04:48;;;;;;;4.55;4.28;;;;;;;12.96;77.56;98255.60;1760247;80;21115;-53
2021/05/18 01:07:15;;;;;;;3.62;3.42;;;;;;;12.95;77.66;98257.44;1760778;80;20973;-53
2021/05/18 01:09:42;;;;;;;3.92;3.60;;;;;;;12.94;77.77;98248.97;1701929;82;21144;-53
2021/05/18 01:12:08;;;;;;;3.45;3.25;;;;;;;12.95;77.81;98243.08;1697665;83;21486;-53
2021/05/18 01:14:35;;;;;;;2.60;2.50;;;;;;;12.95;77.62;98251.18;1760661;80;21111;-53
2021/05/18 01:17:02;;;;;;;4.40;1.82;;;;;;;12.93;77.76;98259.92;1761337;80;20941;-52
2021/05/18 01:19:28;;;;;;;5.20;2.30;;;;;;;12.93;77.81;98269.38;1761725;80;20940;-52
2021/05/18 01:21:57;;;;;;;3.92;2.27;;;;;;;12.89;77.92;98270.97;1757852;79;21111;-49
2021/05/18 01:24:24;;;;;;;4.25;1.98;;;;;;;12.88;78.10;98267.03;1752309;80;21474;-52
2021/05/18 01:26:51;;;;;;;5.83;1.45;;;;;;;12.86;78.21;98263.09;1752282;80;21458;-51
2021/05/18 01:29:19;;;;;;;1.02;1.02;;;;;;;12.86;78.33;98267.64;1753225;80;21906;-50
2021/05/18 01:31:46;;;;;;;2.90;0.82;;;;;;;12.83;78.43;98264.72;1753597;79;21016;-48
2021/05/18 01:34:13;;;;;;;1.15;1.05;;;;;;;12.80;78.54;98256.85;1752132;80;21107;-50
2021/05/18 01:36:44;;;;;;;2.22;0.90;;;;;;;12.79;78.62;98257.83;1749783;80;21741;-52
2021/05/18 01:44:30;;;;;;;2.55;1.12;;;;;;;12.71;78.56;98241.39;1735054;80;20933;-52
2021/05/18 01:46:57;;;;;;;2.90;1.22;;;;;;;12.69;78.51;98242.48;1754761;80;21402;-51
2021/05/18 01:49:25;;;;;;;1.20;1.10;;;;;;;12.68;78.48;98244.81;1757214;80;21023;-52
2021/05/18 01:51:55;;;;;;;2.12;1.10;;;;;;;12.66;78.53;98240.92;1753076;80;22100;-52
2021/05/18 01:54:26;;;;;;;1.25;1.15;;;;;;;12.67;78.54;98243.13;1719523;81;21117;-51
2021/05/18 01:59:30;;;;;;;2.92;0.93;;;;;;;12.68;78.75;98234.02;1753662;80;21071;-51
2021/05/18 02:02:04;;;;;;;2.27;0.82;;;;;;;12.70;78.78;98223.96;1735259;80;21080;-51
2021/05/18 02:04:42;;;;;;;1.77;1.10;;;;;;;12.71;78.79;98229.24;1752430;80;21172;-51
2021/05/18 02:07:20;;;;;;;1.20;1.12;;;;;;;12.72;78.81;98230.11;1737195;80;21091;-51
2021/05/18 02:09:47;;;;;;;2.37;0.90;;;;;;;12.70;78.74;98221.27;1754567;80;20958;-52
2021/05/18 02:12:15;;;;;;;5.42;1.30;;;;;;;12.68;78.69;98223.22;1752990;80;21078;-52
2021/05/18 02:14:46;;;;;;;2.15;1.52;;;;;;;12.65;78.57;98221.66;1755414;80;21504;-51
2021/05/18 02:17:30;;;;;;;2.02;1.00;;;;;;;12.61;78.48;98222.87;1750595;80;20917;-52
2021/05/18 02:25:23;;;;;;;1.40;0.93;;;;;;;12.59;78.62;98214.55;1746830;80;21051;-52
2021/05/18 02:28:00;;;;;;;4.75;0.98;;;;;;;12.61;78.75;98217.47;1710321;80;21160;-52
2021/05/18 02:30:26;;;;;;;1.90;0.90;;;;;;;12.61;78.80;98213.91;1719813;80;21071;-52
2021/05/18 02:32:54;;;;;;;0.95;0.95;;;;;;;12.61;78.88;98216.12;1745621;80;21246;-52
2021/05/18 02:35:23;;;;;;;1.45;1.10;;;;;;;12.62;78.88;98219.67;1749528;80;20924;-52
2021/05/18 02:37:50;;;;;;;3.17;1.30;;;;;;;12.60;78.90;98218.44;1748035;80;21056;-51
2021/05/18 02:40:21;;;;;;;1.80;1.00;;;;;;;12.60;78.90;98221.14;1744943;80;21704;-52
2021/05/18 02:42:48;;;;;;;11.03;1.00;;;;;;;12.61;78.92;98221.52;1719685;80;20937;-52
2021/05/18 02:45:35;;;;;;;6.80;0.93;;;;;;;12.63;79.01;98226.80;1747576;80;20949;-52
2021/05/18 02:50:45;;;;;;;1.47;1.37;;;;;;;12.61;79.20;98235.50;1743166;80;21658;-52
2021/05/18 02:53:12;;;;;;;4.00;0.93;;;;;;;12.59;79.35;98235.62;1745516;80;21231;-52
2021/05/18 02:55:58;;;;;;;4.53;1.98;;;;;;;12.58;79.49;98229.88;1740818;80;21154;-52
2021/05/18 02:58:09;;;;;;;14.07;1.80;;;;;;;12.57;79.69;98231.34;1743739;80;21051;-52
2021/05/18 03:00:36;;;;;;;19.85;1.42;;;;;;;12.56;79.84;98232.33;1744718;80;20925;-52
2021/05/18 03:03:02;;;;;;;2.50;1.70;;;;;;;12.54;80.01;98235.63;1749175;80;21053;-51
2021/05/18 03:05:29;;;;;;;3.85;1.35;;;;;;;12.53;80.08;98242.00;1748591;80;20977;-51
2021/05/18 03:07:57;;;;;;;1.42;1.32;;;;;;;12.53;80.18;98242.87;1750258;80;21394;-51
2021/05/18 03:10:23;;;;;;;8.35;1.67;;;;;;;12.54;80.29;98247.78;1747234;80;21436;-51
2021/05/18 03:12:50;;;;;;;5.25;2.20;;;;;;;12.54;80.40;98243.23;1746646;80;20980;-51
2021/05/18 03:15:16;;;;;;;8.75;1.47;;;;;;;12.56;80.55;98248.52;1749056;80;21549;-51
2021/05/18 03:17:44;;;;;;;1.98;1.77;;;;;;;12.57;80.78;98253.80;1682116;83;21393;-51
2021/05/18 03:20:14;;;;;;;4.10;1.52;;;;;;;12.61;80.91;98247.16;1747893;80;22294;-51
2021/05/18 03:22:41;;;;;;;5.55;1.35;;;;;;;12.64;81.07;98246.06;1753843;80;20938;-51
2021/05/18 03:25:09;;;;;;;4.90;1.55;;;;;;;12.67;81.24;98237.24;1754047;80;20980;-51
2021/05/18 03:27:35;;;;;;;7.72;1.40;;;;;;;12.71;81.29;98241.39;1751674;80;21593;-52
2021/05/18 03:30:18;;;;;;;2.83;1.60;;;;;;;12.73;81.36;98243.48;1759527;79;21585;-51
2021/05/18 03:35:17;;;;;;;2.00;1.32;;;;;;;12.81;81.51;98246.42;1694532;83;20985;-52
2021/05/18 03:37:52;;;;;;;3.30;1.37;;;;;;;12.86;81.58;98255.00;1753423;80;21616;-51
2021/05/18 03:40:17;;;;;;;3.83;1.22;;;;;;;12.91;81.63;98256.48;1754947;80;20920;-51
2021/05/18 03:42:54;;;;;;;1.37;1.27;;;;;;;12.95;81.60;98259.28;1759518;80;20956;-51
2021/05/18 04:17:24;;;;;;;3.87;3.58;;;;;;;13.70;81.70;98256.15;1755219;79;20980;-51
2021/05/18 04:20:45;;;;;;;3.85;3.58;;;;;;;13.78;81.60;98259.59;1754252;80;21050;-52
2021/05/18 04:22:32;;;;;;;3.90;2.58;;;;;;;13.83;81.50;98256.84;1741005;80;21287;-52
2021/05/18 04:25:07;;;;;;;2.47;2.27;;;;;;;13.89;81.44;98256.31;1752894;80;21700;-52
2021/05/18 04:38:53;;;;;;;4.58;2.35;;;;;;;14.24;81.04;98269.52;1750955;80;20245;-51
2021/05/18 04:49:27;;;;;;;4.15;3.95;;;;;;;14.37;80.55;98273.39;1753268;80;21020;-52
2021/05/18 04:51:39;;;;;;;2.40;2.30;;;;;;;14.41;80.44;98282.11;1750264;80;21130;-51
2021/05/18 04:59:38;;;;;;;4.65;2.58;;;;;;;14.47;80.27;98261.27;1753980;80;21614;-51
2021/05/18 05:07:11;;;;;;;2.08;1.87;;;;;;;14.60;80.13;98261.92;1753591;80;21752;-51
2021/05/18 05:09:38;;;;;;;3.62;2.50;;;;;;;14.63;80.20;98263.02;1756464;80;21362;-51
2021/05/18 05:12:40;;;;;;;3.75;3.45;;;;;;;14.63;80.20;98263.02;1756054;80;21143;-51
2021/05/18 05:14:43;;;;;;;4.15;3.85;;;;;;;14.72;79.94;98250.84;1749587;80;21321;-51
2021/05/18 05:17:10;;;;;;;3.17;2.87;;;;;;;14.72;79.94;98250.84;1753204;80;21096;-50
2021/05/18 05:19:37;;;;;;;3.42;2.37;;;;;;;14.76;80.00;98254.16;1755966;80;21588;-51
2021/05/18 05:22:04;;;;;;;2.40;2.30;;;;;;;14.78;80.04;98258.95;1757786;80;21465;-51
2021/05/18 05:24:31;;;;;;;3.15;2.25;;;;;;;14.81;80.09;98249.66;1751567;80;21529;-50
2021/05/18 05:26:58;;;;;;;3.45;2.12;;;;;;;14.86;80.11;98247.42;1757461;80;20929;-50
2021/05/18 05:29:24;;;;;;;2.98;2.77;;;;;;;14.92;80.20;98234.18;1755246;79;21329;-51
2021/05/18 05:31:51;;;;;;;3.12;2.83;;;;;;;15.03;80.12;98238.64;1751866;80;21088;-50
2021/05/18 05:34:18;;;;;;;3.10;2.90;;;;;;;15.11;80.17;98231.53;1756211;80;21088;-50
2021/05/18 05:36:45;;;;;;;5.28;3.95;;;;;;;15.21;80.38;98235.63;1753065;80;21490;-50
2021/05/18 05:39:21;;;;;;;2.83;2.62;;;;;;;15.30;80.35;98241.56;1751108;79;21152;-50
2021/05/18 05:41:42;;;;;;;2.58;2.37;;;;;;;15.42;80.22;98240.91;1751072;80;20921;-52
2021/05/18 05:44:09;;;;;;;2.95;2.75;;;;;;;15.54;80.02;98233.55;1753745;80;21155;-51
2021/05/18 05:46:35;;;;;;;1.85;1.75;;;;;;;15.64;79.88;98236.63;1753667;80;21115;-50
2021/05/18 05:49:03;;;;;;;2.92;2.72;;;;;;;15.73;79.93;98233.56;1752258;80;21160;-50
2021/05/18 05:51:29;;;;;;;3.02;2.60;;;;;;;15.82;79.67;98236.25;1749442;80;21578;-51
2021/05/18 05:53:59;;;;;;;5.20;2.98;;;;;;;15.94;79.41;98227.97;1755379;80;21399;-51
2021/05/18 05:56:25;;;;;;;3.08;2.85;;;;;;;16.03;79.31;98223.89;1757631;79;20953;-51
2021/05/18 05:58:52;;;;;;;4.10;3.62;;;;;;;16.15;79.36;98217.81;1757666;80;20960;-50
2021/05/18 06:01:18;;;;;;;2.58;2.37;;;;;;;16.24;79.03;98215.58;1756043;80;21047;-50
2021/05/18 06:03:45;;;;;;;3.65;1.92;;;;;;;16.35;78.61;98219.96;1696287;82;21613;-51
2021/05/18 06:06:11;;;;;;;3.37;3.08;;;;;;;16.44;78.24;98224.51;1716618;82;21306;-51
2021/05/18 06:08:39;;;;;;;2.50;2.30;;;;;;;16.51;78.00;98221.55;1756628;80;20983;-51
2021/05/18 06:11:58;;;;;;;2.95;2.75;;;;;;;16.59;77.82;98223.02;1757611;80;20925;-51
2021/05/18 06:46:50;;;;;;;4.15;3.90;;;;;;;17.15;75.83;98212.58;1747571;80;20293;-52
2021/05/18 06:48:25;;;;;;;4.08;3.87;;;;;;;17.19;75.64;98207.17;1732772;80;21740;-52
2021/05/18 06:50:53;;;;;;;4.05;3.75;;;;;;;17.24;75.40;98207.08;1742915;80;21542;-52
2021/05/18 06:53:19;;;;;;;4.30;4.00;;;;;;;17.22;75.56;98217.25;1745119;80;21539;-52
2021/05/18 06:55:48;;;;;;;4.55;4.33;;;;;;;17.26;75.61;98214.59;1740044;80;21024;-52
2021/05/18 06:58:19;;;;;;;4.90;4.70;;;;;;;17.37;75.41;98213.49;1746476;80;21570;-52
2021/05/18 07:00:42;;;;;;;5.10;4.80;;;;;;;17.48;75.13;98206.98;1744434;79;21138;-53
2021/05/18 07:03:20;;;;;;;4.87;4.57;;;;;;;17.55;75.09;98199.41;1743216;80;21703;-53
2021/05/18 07:06:01;;;;;;;3.80;3.52;;;;;;;17.66;74.78;98194.27;1745894;80;21688;-50
2021/05/18 07:10:55;;;;;;;3.45;3.20;;;;;;;17.86;74.87;98193.61;1680296;83;21365;-51
2021/05/18 07:13:21;;;;;;;3.15;2.95;;;;;;;17.98;74.22;98185.52;1702141;82;21314;-50
2021/05/18 07:15:49;;;;;;;2.83;2.37;;;;;;;18.10;73.55;98185.63;1749785;80;21107;-50
2021/05/18 07:18:15;;;;;;;3.72;1.65;;;;;;;18.19;72.79;98186.04;1744912;80;21616;-50
2021/05/18 07:20:43;;;;;;;2.12;1.92;;;;;;;18.27;71.67;98171.11;1745076;80;21345;-51
2021/05/18 07:23:16;;;;;;;3.55;2.90;;;;;;;18.36;71.30;98182.91;1744473;80;21409;-51
2021/05/18 07:25:41;;;;;;;1.70;1.57;;;;;;;18.45;71.12;98181.95;1753145;80;21497;-51
2021/05/18 07:28:08;;;;;;;5.30;2.25;;;;;;;18.53;70.46;98181.99;1753454;80;21087;-51
2021/05/18 07:30:36;;;;;;;1.75;1.40;;;;;;;18.58;69.56;98180.16;1750278;80;21151;-51
2021/05/18 07:33:03;;;;;;;1.10;1.00;;;;;;;18.65;69.52;98177.13;1749935;80;21697;-51
2021/05/18 07:37:54;;;;;;;1.50;1.40;;;;;;;18.83;68.21;98184.72;1826452;76;28304;-51
2021/05/18 07:40:21;;;;;;;2.00;1.32;;;;;;;18.87;67.91;98179.30;1789681;77;21015;-50
2021/05/18 07:42:51;;;;;;;2.25;2.10;;;;;;;18.95;67.84;98174.38;1791205;77;22615;-50
2021/05/18 07:45:21;;;;;;;2.02;1.00;;;;;;;18.92;67.14;98174.70;1794157;77;21015;-50
2021/05/18 07:47:48;;;;;;;2.45;0.70;;;;;;;18.85;67.04;98173.15;1794957;77;21684;-53
2021/05/18 07:50:20;;;;;;;1.15;1.00;;;;;;;18.81;66.58;98178.56;1793576;77;21415;-52
2021/05/18 08:06:27;;;;;;;;;;;;;;;18.82;65.42;98200.22;1790876;77;21118;-53
2021/05/18 08:08:53;;;;;;;2.02;1.30;;;;;;;18.82;65.96;98192.04;1792131;77;21805;-54
2021/05/18 08:11:20;;;;;;;1.10;1.00;;;;;;;18.81;66.57;98193.05;1787705;77;21119;-52
2021/05/18 08:13:48;;;;;;;1.92;0.90;;;;;;;18.80;66.81;98196.79;1792088;77;21059;-52
2021/05/18 08:21:52;;;;;;;2.75;0.68;;;;;;;18.92;66.83;98200.59;1736975;79;21161;-54
2021/05/18 10:36:43;;;;;;;1.50;1.40;;;;;;;17.94;72.31;98118.31;1769569;80;21556;-52
2021/05/18 10:39:22;;;;;;;2.12;1.90;;;;;;;17.96;72.43;98118.98;1743404;80;21470;-52
2021/05/18 10:41:50;;;;;;;1.98;1.77;;;;;;;17.98;72.58;98127.00;1712308;81;21147;-52
2021/05/18 10:44:16;;;;;;;1.75;1.65;;;;;;;17.97;72.87;98115.75;1714981;81;21013;-52
2021/05/18 10:46:53;;;;;;;1.72;1.40;;;;;;;17.97;73.04;98122.56;1709814;81;21819;-52
2021/05/18 10:49:33;;;;;;;2.65;1.47;;;;;;;17.97;73.33;98115.75;1712738;81;21702;-52
2021/05/18 10:52:08;;;;;;;3.25;1.17;;;;;;;17.96;73.66;98118.98;1712216;81;21107;-52
2021/05/18 10:54:39;;;;;;;1.67;1.10;;;;;;;17.96;73.83;98114.89;1712269;81;21486;-52
2021/05/18 10:57:21;;;;;;;1.70;1.30;;;;;;;17.97;74.08;98104.86;1710958;81;20948;-52
2021/05/18 10:59:53;;;;;;;2.62;1.40;;;;;;;17.96;74.31;98089.54;1699193;81;21910;-52
2021/05/18 11:02:38;;;;;;;2.75;1.50;;;;;;;17.93;74.49;98086.66;1712848;81;21133;-51
2021/05/18 11:05:11;;;;;;;2.45;1.37;;;;;;;17.91;74.76;98078.30;1711118;81;21131;-51
2021/05/18 11:07:42;;;;;;;2.08;0.98;;;;;;;17.88;74.98;98080.82;1712790;81;21139;-51
2021/05/18 11:10:14;;;;;;;1.20;0.85;;;;;;;17.86;75.25;98078.79;1713936;81;20917;-51
2021/05/18 11:12:44;;;;;;;2.22;0.90;;;;;;;17.83;75.44;98076.38;1712142;81;22100;-51
2021/05/18 11:15:23;;;;;;;1.42;0.90;;;;;;;17.81;75.66;98074.81;1713826;81;20972;-51
2021/05/18 11:17:52;;;;;;;1.10;0.90;;;;;;;17.78;75.93;98070.54;1712633;81;20934;-51
2021/05/18 11:23:33;;;;;;;1.70;0.80;;;;;;;17.73;76.21;98080.56;1712109;81;21143;-51
2021/05/18 11:26:04;;;;;;;1.12;0.88;;;;;;;17.74;76.44;98086.35;1708309;81;21529;-51
2021/05/18 11:28:45;;;;;;;1.32;0.82;;;;;;;17.73;76.54;98076.47;1638023;85;21195;-50
2021/05/18 11:31:22;;;;;;;2.10;1.00;;;;;;;17.73;76.70;98062.02;1668671;83;21003;-51
2021/05/18 11:33:48;;;;;;;1.05;0.88;;;;;;;17.71;76.79;98052.64;1668766;83;20947;-51
2021/05/18 11:36:21;;;;;;;3.33;0.75;;;;;;;17.69;77.02;98053.30;1667787;83;21173;-51
2021/05/18 11:38:56;;;;;;;0.93;0.60;;;;;;;17.64;76.92;98050.22;1668188;83;21253;-51
2021/05/18 11:41:25;;;;;;;;;;;;;;;17.60;76.90;98057.48;1680185;82;21714;-51
2021/05/18 11:43:54;;;;;;;1.07;0.98;;;;;;;17.59;77.17;98057.98;1684363;82;20592;-51
2021/05/18 11:46:21;;;;;;;0.93;0.70;;;;;;;17.61;77.28;98059.16;1680545;82;20994;-51
2021/05/18 11:49:07;;;;;;;2.35;0.82;;;;;;;17.65;77.27;98061.45;1678418;82;20966;-50
2021/05/18 11:51:53;;;;;;;2.47;0.90;;;;;;;17.73;77.10;98060.66;1681117;82;21047;-51
2021/05/18 11:54:22;;;;;;;3.37;0.82;;;;;;;17.79;76.92;98060.00;1663603;84;21370;-52
2021/05/18 11:56:53;;;;;;;2.45;0.70;;;;;;;17.82;76.48;98057.48;1680978;82;20964;-51
2021/05/18 11:59:21;;;;;;;1.15;0.50;;;;;;;17.80;75.37;98062.22;1655456;84;20967;-51
2021/05/18 12:02:00;;;;;;;3.33;0.62;;;;;;;17.75;74.17;98065.44;1684304;82;21617;-50
2021/05/18 12:04:28;;;;;;;0.40;0.30;;;;;;;17.65;73.59;98076.42;1665066;83;21074;-52
2021/05/18 12:07:00;;;;;;;5.80;0.47;;;;;;;17.56;73.30;98077.84;1666880;83;20998;-51
2021/05/18 12:09:32;;;;;;;0.85;0.45;;;;;;;17.51;73.28;98074.75;1669917;83;20955;-50
2021/05/18 12:12:05;;;;;;;7.72;0.70;;;;;;;17.48;73.61;98061.45;1658634;84;21001;-52
2021/05/18 12:14:31;;;;;;;14.40;0.70;;;;;;;17.46;73.79;98058.88;1682582;82;20956;-50
2021/05/18 12:16:59;;;;;;;2.05;0.70;;;;;;;17.49;73.74;98057.22;1683797;82;21002;-51
2021/05/18 12:19:26;;;;;;;2.80;0.60;;;;;;;17.52;73.94;98066.44;1680302;82;20964;-52
2021/05/18 12:21:56;;;;;;;3.05;0.53;;;;;;;17.56;73.53;98070.53;1680445;82;20963;-52
2021/05/18 12:24:27;;;;;;;1.87;0.55;;;;;;;17.58;73.27;98062.22;1684479;82;21478;-51
2021/05/18 12:26:58;;;;;;;2.83;0.45;;;;;;;17.59;73.30;98057.98;1684084;82;20970;-52
2021/05/18 12:29:28;;;;;;;2.30;0.40;;;;;;;17.60;73.28;98055.61;1683955;82;21733;-51
2021/05/18 12:31:54;;;;;;;7.62;0.70;;;;;;;17.63;73.28;98060.75;1676900;82;20980;-52
2021/05/18 12:34:28;;;;;;;3.15;0.80;;;;;;;17.66;72.92;98055.00;1683798;82;21022;-51
2021/05/18 12:36:55;;;;;;;;;;;;;;;17.73;72.88;98060.66;1684599;82;21310;-52
2021/05/18 12:39:22;;;;;;;1.60;0.50;;;;;;;17.78;73.18;98057.79;1679180;82;20544;-51
2021/05/18 12:42:00;;;;;;;2.95;0.60;;;;;;;17.79;72.87;98061.36;1657725;82;21131;-52
2021/05/18 12:44:34;;;;;;;1.77;0.50;;;;;;;17.82;73.04;98069.22;1623416;85;21151;-50
2021/05/18 12:47:05;;;;;;;2.20;0.40;;;;;;;17.86;73.02;98072.49;1634188;85;21583;-50
2021/05/18 12:49:37;;;;;;;2.15;0.30;;;;;;;17.93;73.07;98070.32;1652299;84;21004;-52
2021/05/18 12:52:13;;;;;;;0.85;0.40;;;;;;;17.99;72.61;98072.39;1647756;84;21162;-51
2021/05/18 12:54:54;;;;;;;0.70;0.30;;;;;;;18.01;71.88;98074.45;1649169;84;21668;-52
2021/05/18 12:57:26;;;;;;;2.20;0.40;;;;;;;18.05;71.18;98070.88;1649964;84;21174;-52
2021/05/18 13:00:08;;;;;;;1.60;0.50;;;;;;;18.04;70.88;98071.39;1628665;85;21529;-51
2021/05/18 13:02:46;;;;;;;1.57;0.40;;;;;;;18.03;70.44;98069.67;1627222;85;21690;-51
2021/05/18 13:05:19;;;;;;;3.80;0.50;;;;;;;18.04;70.23;98063.22;1628257;85;21181;-52
2021/05/18 13:08:12;;;;;;;2.15;0.55;;;;;;;18.07;69.96;98060.19;1627935;85;21027;-51
2021/05/18 13:11:04;;;;;;;1.87;0.70;;;;;;;18.13;70.35;98063.61;1649920;84;22479;-52
2021/05/18 13:13:23;;;;;;;0.60;0.50;;;;;;;18.18;70.53;98065.87;1644782;84;21169;-52
2021/05/18 13:15:49;;;;;;;1.40;0.50;;;;;;;18.19;70.83;98070.30;1614189;86;21135;-52
2021/05/18 13:18:16;;;;;;;2.90;0.50;;;;;;;18.20;70.81;98062.48;1638209;84;22411;-52
2021/05/18 13:20:53;;;;;;;1.50;0.45;;;;;;;18.19;70.88;98061.27;1638186;84;21640;-51
2021/05/18 13:23:34;;;;;;;1.20;0.50;;;;;;;18.19;71.01;98045.80;1639539;84;21151;-51
2021/05/18 13:28:44;;;;;;;1.20;0.40;;;;;;;18.30;70.92;98037.81;1631787;85;21200;-51
2021/05/18 13:31:10;;;;;;;4.40;0.62;;;;;;;18.38;71.40;98036.48;1632523;85;21108;-51
2021/05/18 13:33:38;;;;;;;0.75;0.40;;;;;;;18.44;71.22;98039.94;1631834;85;21146;-52
2021/05/18 13:36:04;;;;;;;1.65;0.60;;;;;;;18.47;71.39;98029.55;1632652;85;21154;-51
2021/05/18 13:38:34;;;;;;;2.17;0.50;;;;;;;18.51;70.95;98035.02;1629532;85;21099;-51
2021/05/18 13:41:01;;;;;;;2.67;0.50;;;;;;;18.49;70.66;98031.60;1629293;85;21251;-50
2021/05/18 13:43:27;;;;;;;2.58;0.88;;;;;;;18.48;71.05;98031.77;1640067;85;21083;-50
2021/05/18 13:45:53;;;;;;;2.70;0.50;;;;;;;18.43;71.65;98046.40;1637851;85;21696;-52
2021/05/18 13:48:20;;;;;;;0.68;0.50;;;;;;;18.38;71.35;98041.94;1636723;85;21107;-51
2021/05/18 13:50:47;;;;;;;1.80;0.40;;;;;;;18.34;71.22;98050.11;1645059;85;22112;-52
2021/05/18 13:53:14;;;;;;;0.60;0.40;;;;;;;18.28;71.14;98054.86;1664555;83;21576;-51
2021/05/18 13:55:41;;;;;;;2.55;0.50;;;;;;;18.27;70.91;98056.72;1645824;85;21154;-51
2021/05/18 13:58:08;;;;;;;2.05;0.60;;;;;;;18.27;71.16;98056.72;1634883;85;21236;-51
2021/05/18 14:00:34;;;;;;;3.85;0.90;;;;;;;18.27;71.14;98054.50;1649965;85;22382;-52
2021/05/18 14:03:00;;;;;;;1.62;0.78;;;;;;;18.27;70.92;98058.09;1643938;85;21111;-51
2021/05/18 14:05:29;;;;;;;3.80;0.40;;;;;;;18.30;70.89;98056.87;1630704;85;21146;-51
2021/05/18 14:08:24;;;;;;;0.80;0.60;;;;;;;18.25;70.65;98044.28;1634450;85;21066;-51
2021/05/18 14:11:06;;;;;;;0.70;0.45;;;;;;;18.20;70.56;98043.92;1648547;85;22831;-51
2021/05/18 14:13:37;;;;;;;1.30;0.40;;;;;;;18.17;70.77;98032.84;1629546;85;21126;-50
2021/05/18 14:16:04;;;;;;;0.60;0.40;;;;;;;18.16;71.01;98029.77;1647047;85;21996;-52
2021/05/18 14:18:32;;;;;;;2.42;0.50;;;;;;;18.21;71.12;98036.08;1666472;83;21468;-51
2021/05/18 14:20:59;;;;;;;0.80;0.40;;;;;;;18.26;71.46;98041.91;1646664;85;20975;-51
2021/05/18 14:23:28;;;;;;;0.95;0.60;;;;;;;18.30;71.43;98043.27;1663187;83;21855;-51
2021/05/18 14:25:53;;;;;;;0.62;0.50;;;;;;;18.33;71.40;98044.31;1668163;83;20955;-51
2021/05/18 14:28:21;;;;;;;4.03;0.60;;;;;;;18.33;71.64;98050.61;1638957;85;21148;-51
2021/05/18 14:30:49;;;;;;;1.00;0.50;;;;;;;18.35;71.96;98050.45;1638260;85;21104;-51
2021/05/18 14:33:15;;;;;;;3.70;0.53;;;;;;;18.34;72.17;98041.94;1640733;85;21158;-51
2021/05/18 14:35:42;;;;;;;2.05;0.50;;;;;;;18.34;72.30;98043.30;1645469;85;21644;-51
2021/05/18 14:38:13;;;;;;;1.70;0.68;;;;;;;18.32;72.53;98041.23;1643223;85;22671;-51
2021/05/18 14:40:55;;;;;;;1.20;1.10;;;;;;;18.32;72.92;98038.52;1647166;85;21061;-51
2021/05/18 14:45:43;;;;;;;0.90;0.70;;;;;;;18.24;73.28;98035.25;1664176;83;21086;-51
2021/05/18 14:53:53;;;;;;;4.33;0.50;;;;;;;18.08;74.02;98019.70;1664260;83;20958;-51
2021/05/18 14:56:10;;;;;;;3.02;0.60;;;;;;;18.03;74.05;98017.13;1661189;83;21027;-51
2021/05/18 14:58:36;;;;;;;1.10;0.57;;;;;;;17.97;74.22;98017.25;1662431;83;20986;-51
2021/05/18 15:01:04;;;;;;;3.15;0.70;;;;;;;17.94;74.44;98019.46;1663179;83;22086;-51
2021/05/18 15:03:32;;;;;;;1.82;0.80;;;;;;;17.89;74.60;98009.55;1665770;83;21555;-51
2021/05/18 15:05:59;;;;;;;6.22;1.20;;;;;;;17.85;74.88;98001.38;1665737;83;21413;-51
2021/05/18 15:08:27;;;;;;;4.40;0.90;;;;;;;17.81;74.94;97996.75;1661090;83;21010;-51
2021/05/18 15:10:57;;;;;;;4.03;0.80;;;;;;;17.80;75.19;97994.19;1664498;83;20999;-50
2021/05/18 15:13:24;;;;;;;2.15;0.88;;;;;;;17.78;75.08;97995.20;1663268;83;22004;-51
2021/05/18 15:15:51;;;;;;;0.93;0.60;;;;;;;17.78;75.25;97986.72;1661640;83;20974;-51
2021/05/18 15:18:18;;;;;;;2.83;1.10;;;;;;;17.76;75.22;97993.67;1662102;83;21560;-51
2021/05/18 15:20:46;;;;;;;2.17;0.60;;;;;;;17.76;75.23;97998.61;1665332;83;21359;-51
2021/05/18 15:23:12;;;;;;;2.67;0.65;;;;;;;17.78;75.22;97996.24;1661410;83;20955;-51
2021/05/18 15:25:40;;;;;;;2.52;0.70;;;;;;;17.78;75.23;98001.14;1660047;83;21094;-51
2021/05/18 15:28:06;;;;;;;1.77;1.07;;;;;;;17.78;74.91;97997.59;1660736;83;20979;-51
2021/05/18 15:30:33;;;;;;;5.00;1.00;;;;;;;17.76;75.01;98006.78;1659959;83;21233;-51
2021/05/18 15:33:00;;;;;;;2.75;0.70;;;;;;;17.70;75.19;98008.75;1658832;83;21155;-52
2021/05/18 15:35:27;;;;;;;1.90;0.70;;;;;;;17.66;75.27;98006.53;1660689;83;21146;-51
2021/05/18 15:37:53;;;;;;;0.72;0.57;;;;;;;17.65;75.00;98008.39;1663202;83;22537;-51
2021/05/18 15:40:22;;;;;;;1.45;0.60;;;;;;;17.61;74.99;97999.30;1664980;83;21646;-51
2021/05/18 15:42:48;;;;;;;1.77;0.75;;;;;;;17.57;75.10;97997.94;1666122;83;21161;-51
2021/05/18 15:45:14;;;;;;;1.35;0.70;;;;;;;17.56;75.32;97997.59;1668779;83;21504;-51
2021/05/18 15:47:41;;;;;;;0.85;0.80;;;;;;;17.56;75.50;97996.23;1668356;83;21129;-51
2021/05/18 15:50:08;;;;;;;3.35;1.10;;;;;;;17.56;75.74;97990.78;1671975;83;21122;-51
2021/05/18 15:52:36;;;;;;;4.97;1.00;;;;;;;17.58;75.98;97983.33;1670281;83;21358;-51
2021/05/18 15:55:04;;;;;;;2.80;1.00;;;;;;;17.59;76.18;97975.52;1680284;82;21903;-51
2021/05/18 15:57:31;;;;;;;2.27;1.00;;;;;;;17.60;76.48;97975.36;1678029;82;21228;-52
2021/05/18 15:59:57;;;;;;;2.98;1.30;;;;;;;17.59;76.33;97972.80;1661094;84;21137;-51
2021/05/18 16:02:24;;;;;;;6.72;1.82;;;;;;;17.58;76.26;97975.16;1681999;82;21177;-52
2021/05/18 16:04:51;;;;;;;2.22;2.12;;;;;;;17.61;76.13;97983.84;1683333;82;21018;-51
2021/05/18 16:07:20;;;;;;;2.05;1.95;;;;;;;17.65;75.92;97977.11;1682472;82;21075;-51
2021/05/18 16:09:46;;;;;;;2.75;2.17;;;;;;;17.67;75.77;97979.67;1666884;83;21129;-51
2021/05/18 16:12:14;;;;;;;2.22;1.82;;;;;;;17.68;75.73;97975.94;1628604;80;21102;-51
2021/05/18 16:14:41;;;;;;;1.85;1.02;;;;;;;17.66;75.43;97974.73;1680138;83;21106;-51
2021/05/18 16:17:08;;;;;;;1.35;0.90;;;;;;;17.63;75.00;97978.27;1679036;83;21227;-51
2021/05/18 16:19:35;;;;;;;1.00;0.80;;;;;;;17.59;74.76;97980.45;1682980;83;21117;-51
2021/05/18 16:22:02;;;;;;;1.15;1.00;;;;;;;17.54;74.51;97988.72;1679889;83;21134;-51
2021/05/18 16:24:33;;;;;;;0.95;0.80;;;;;;;17.51;74.46;97991.78;1678482;83;21047;-51
2021/05/18 16:26:58;;;;;;;2.20;1.17;;;;;;;17.47;74.51;97994.47;1679656;83;21935;-51
2021/05/18 16:29:30;;;;;;;1.65;0.80;;;;;;;17.43;74.65;97987.65;1681234;83;21175;-51
2021/05/18 16:31:55;;;;;;;1.12;0.80;;;;;;;17.38;74.74;97998.48;1675880;83;21170;-51